sensor_id;sensor_type;location;lat;lon;timestamp;P1;durP1;ratioP1;P2;durP2;ratioP2
69325;SDS011;56471;53.508;49.252;2023-07-30T00:00:12;3.25;;;2.42;;
69325;SDS011;56471;53.508;49.252;2023-07-30T00:02:38;2.92;;;2.70;;
69325;SDS011;56471;53.508;49.252;2023-07-30T00:05:03;3.45;;;2.45;;
69325;SDS011;56471;53.508;49.252;2023-07-30T00:07:29;3.58;;;2.50;;
69325;SDS011;56471;53.508;49.252;2023-07-30T00:09:55;3.38;;;2.50;;
69325;SDS011;56471;53.508;49.252;2023-07-30T00:12:21;3.63;;;2.42;;
69325;SDS011;56471;53.508;49.252;2023-07-30T00:14:46;3.40;;;2.80;;
69325;SDS011;56471;53.508;49.252;2023-07-30T00:17:12;3.03;;;2.50;;
69325;SDS011;56471;53.508;49.252;2023-07-30T00:19:37;3.30;;;2.40;;
69325;SDS011;56471;53.508;49.252;2023-07-30T00:22:03;3.15;;;2.50;;
69325;SDS011;56471;53.508;49.252;2023-07-30T00:24:29;3.17;;;2.35;;
69325;SDS011;56471;53.508;49.252;2023-07-30T00:26:54;3.40;;;2.45;;
69325;SDS011;56471;53.508;49.252;2023-07-30T00:29:20;2.70;;;2.47;;
69325;SDS011;56471;53.508;49.252;2023-07-30T00:31:46;3.92;;;2.40;;
69325;SDS011;56471;53.508;49.252;2023-07-30T00:34:11;3.25;;;2.40;;
69325;SDS011;56471;53.508;49.252;2023-07-30T00:36:37;3.20;;;2.20;;
69325;SDS011;56471;53.508;49.252;2023-07-30T00:39:03;3.05;;;2.35;;
69325;SDS011;56471;53.508;49.252;2023-07-30T00:41:28;2.70;;;2.38;;
69325;SDS011;56471;53.508;49.252;2023-07-30T00:43:54;2.70;;;2.33;;
69325;SDS011;56471;53.508;49.252;2023-07-30T00:46:20;2.60;;;2.40;;
69325;SDS011;56471;53.508;49.252;2023-07-30T00:48:45;3.10;;;2.42;;
69325;SDS011;56471;53.508;49.252;2023-07-30T00:51:11;3.30;;;2.38;;
69325;SDS011;56471;53.508;49.252;2023-07-30T00:53:38;3.38;;;2.35;;
69325;SDS011;56471;53.508;49.252;2023-07-30T00:56:04;2.50;;;2.30;;
69325;SDS011;56471;53.508;49.252;2023-07-30T00:58:30;2.65;;;2.45;;
69325;SDS011;56471;53.508;49.252;2023-07-30T01:00:57;2.67;;;2.20;;
69325;SDS011;56471;53.508;49.252;2023-07-30T01:03:23;2.50;;;2.30;;
69325;SDS011;56471;53.508;49.252;2023-07-30T01:05:50;2.78;;;2.03;;
69325;SDS011;56471;53.508;49.252;2023-07-30T01:08:16;4.13;;;2.33;;
69325;SDS011;56471;53.508;49.252;2023-07-30T01:10:41;3.00;;;2.35;;
69325;SDS011;56471;53.508;49.252;2023-07-30T01:13:08;3.60;;;2.53;;
69325;SDS011;56471;53.508;49.252;2023-07-30T01:15:35;2.35;;;2.15;;
69325;SDS011;56471;53.508;49.252;2023-07-30T01:18:02;2.85;;;2.30;;
69325;SDS011;56471;53.508;49.252;2023-07-30T01:20:31;4.57;;;2.30;;
69325;SDS011;56471;53.508;49.252;2023-07-30T01:23:00;3.53;;;2.42;;
69325;SDS011;56471;53.508;49.252;2023-07-30T01:25:27;3.25;;;2.30;;
69325;SDS011;56471;53.508;49.252;2023-07-30T01:27:56;2.58;;;2.10;;
69325;SDS011;56471;53.508;49.252;2023-07-30T01:30:29;4.70;;;2.20;;
69325;SDS011;56471;53.508;49.252;2023-07-30T01:32:58;2.25;;;2.05;;
69325;SDS011;56471;53.508;49.252;2023-07-30T01:35:27;3.25;;;2.20;;
69325;SDS011;56471;53.508;49.252;2023-07-30T01:37:53;4.82;;;2.10;;
69325;SDS011;56471;53.508;49.252;2023-07-30T01:40:20;2.58;;;2.00;;
69325;SDS011;56471;53.508;49.252;2023-07-30T01:42:47;2.60;;;2.08;;
69325;SDS011;56471;53.508;49.252;2023-07-30T01:45:14;2.40;;;2.20;;
69325;SDS011;56471;53.508;49.252;2023-07-30T01:47:40;2.78;;;2.30;;
69325;SDS011;56471;53.508;49.252;2023-07-30T01:50:05;2.00;;;1.80;;
69325;SDS011;56471;53.508;49.252;2023-07-30T01:52:31;2.28;;;2.03;;
69325;SDS011;56471;53.508;49.252;2023-07-30T01:54:57;3.38;;;2.17;;
69325;SDS011;56471;53.508;49.252;2023-07-30T01:57:24;2.85;;;1.80;;
69325;SDS011;56471;53.508;49.252;2023-07-30T01:59:49;2.20;;;2.00;;
69325;SDS011;56471;53.508;49.252;2023-07-30T02:02:15;2.30;;;2.10;;
69325;SDS011;56471;53.508;49.252;2023-07-30T02:04:41;2.42;;;2.00;;
69325;SDS011;56471;53.508;49.252;2023-07-30T02:07:06;3.03;;;2.33;;
69325;SDS011;56471;53.508;49.252;2023-07-30T02:09:32;3.45;;;2.30;;
69325;SDS011;56471;53.508;49.252;2023-07-30T02:11:58;3.47;;;2.38;;
69325;SDS011;56471;53.508;49.252;2023-07-30T02:14:23;2.60;;;2.00;;
69325;SDS011;56471;53.508;49.252;2023-07-30T02:16:49;2.40;;;2.13;;
69325;SDS011;56471;53.508;49.252;2023-07-30T02:19:15;2.30;;;2.10;;
69325;SDS011;56471;53.508;49.252;2023-07-30T02:21:40;2.90;;;2.10;;
69325;SDS011;56471;53.508;49.252;2023-07-30T02:24:08;2.10;;;1.90;;
69325;SDS011;56471;53.508;49.252;2023-07-30T02:26:36;3.10;;;2.00;;
69325;SDS011;56471;53.508;49.252;2023-07-30T02:29:05;2.10;;;1.90;;
69325;SDS011;56471;53.508;49.252;2023-07-30T02:31:30;2.22;;;1.90;;
69325;SDS011;56471;53.508;49.252;2023-07-30T02:33:56;2.10;;;1.90;;
69325;SDS011;56471;53.508;49.252;2023-07-30T02:36:23;2.30;;;2.10;;
69325;SDS011;56471;53.508;49.252;2023-07-30T02:38:49;2.10;;;1.90;;
69325;SDS011;56471;53.508;49.252;2023-07-30T02:41:15;1.95;;;1.85;;
69325;SDS011;56471;53.508;49.252;2023-07-30T02:43:41;2.03;;;1.83;;
69325;SDS011;56471;53.508;49.252;2023-07-30T02:46:07;3.08;;;2.03;;
69325;SDS011;56471;53.508;49.252;2023-07-30T02:48:33;2.40;;;1.83;;
69325;SDS011;56471;53.508;49.252;2023-07-30T02:50:58;3.47;;;2.00;;
69325;SDS011;56471;53.508;49.252;2023-07-30T02:53:24;2.47;;;1.90;;
69325;SDS011;56471;53.508;49.252;2023-07-30T02:55:49;2.15;;;1.95;;
69325;SDS011;56471;53.508;49.252;2023-07-30T02:58:15;2.20;;;1.98;;
69325;SDS011;56471;53.508;49.252;2023-07-30T03:00:41;2.35;;;1.80;;
69325;SDS011;56471;53.508;49.252;2023-07-30T03:03:07;3.38;;;1.98;;
69325;SDS011;56471;53.508;49.252;2023-07-30T03:05:32;2.33;;;2.13;;
69325;SDS011;56471;53.508;49.252;2023-07-30T03:07:58;2.53;;;2.30;;
69325;SDS011;56471;53.508;49.252;2023-07-30T03:10:23;2.20;;;2.00;;
69325;SDS011;56471;53.508;49.252;2023-07-30T03:12:49;2.20;;;2.00;;
69325;SDS011;56471;53.508;49.252;2023-07-30T03:15:15;3.05;;;2.00;;
69325;SDS011;56471;53.508;49.252;2023-07-30T03:17:40;2.08;;;1.88;;
69325;SDS011;56471;53.508;49.252;2023-07-30T03:20:06;2.33;;;1.92;;
69325;SDS011;56471;53.508;49.252;2023-07-30T03:22:33;3.10;;;2.08;;
69325;SDS011;56471;53.508;49.252;2023-07-30T03:24:59;3.15;;;2.10;;
69325;SDS011;56471;53.508;49.252;2023-07-30T03:27:24;2.17;;;1.80;;
69325;SDS011;56471;53.508;49.252;2023-07-30T03:29:50;2.20;;;2.00;;
69325;SDS011;56471;53.508;49.252;2023-07-30T03:32:16;2.92;;;1.75;;
69325;SDS011;56471;53.508;49.252;2023-07-30T03:34:41;3.75;;;1.88;;
69325;SDS011;56471;53.508;49.252;2023-07-30T03:37:07;3.30;;;1.75;;
69325;SDS011;56471;53.508;49.252;2023-07-30T03:39:32;2.25;;;2.05;;
69325;SDS011;56471;53.508;49.252;2023-07-30T03:41:58;2.10;;;1.90;;
69325;SDS011;56471;53.508;49.252;2023-07-30T03:44:24;2.22;;;1.90;;
69325;SDS011;56471;53.508;49.252;2023-07-30T03:46:49;2.97;;;1.98;;
69325;SDS011;56471;53.508;49.252;2023-07-30T03:49:15;3.05;;;1.90;;
69325;SDS011;56471;53.508;49.252;2023-07-30T03:51:41;2.65;;;2.00;;
69325;SDS011;56471;53.508;49.252;2023-07-30T03:54:06;2.10;;;1.90;;
69325;SDS011;56471;53.508;49.252;2023-07-30T03:56:32;2.15;;;1.95;;
69325;SDS011;56471;53.508;49.252;2023-07-30T03:58:57;2.10;;;1.90;;
69325;SDS011;56471;53.508;49.252;2023-07-30T04:01:23;2.55;;;2.03;;
69325;SDS011;56471;53.508;49.252;2023-07-30T04:03:49;2.00;;;1.80;;
69325;SDS011;56471;53.508;49.252;2023-07-30T04:06:14;3.55;;;1.98;;
69325;SDS011;56471;53.508;49.252;2023-07-30T04:08:40;2.42;;;1.88;;
69325;SDS011;56471;53.508;49.252;2023-07-30T04:11:07;2.78;;;1.90;;
69325;SDS011;56471;53.508;49.252;2023-07-30T04:13:32;2.60;;;2.08;;
69325;SDS011;56471;53.508;49.252;2023-07-30T04:15:58;2.10;;;1.90;;
69325;SDS011;56471;53.508;49.252;2023-07-30T04:18:24;2.35;;;1.83;;
69325;SDS011;56471;53.508;49.252;2023-07-30T04:20:49;1.88;;;1.77;;
69325;SDS011;56471;53.508;49.252;2023-07-30T04:23:15;4.35;;;2.03;;
69325;SDS011;56471;53.508;49.252;2023-07-30T04:25:41;2.47;;;1.90;;
69325;SDS011;56471;53.508;49.252;2023-07-30T04:28:06;2.17;;;2.00;;
69325;SDS011;56471;53.508;49.252;2023-07-30T04:30:32;2.10;;;1.90;;
69325;SDS011;56471;53.508;49.252;2023-07-30T04:32:58;1.95;;;1.85;;
69325;SDS011;56471;53.508;49.252;2023-07-30T04:35:23;3.22;;;2.00;;
69325;SDS011;56471;53.508;49.252;2023-07-30T04:37:49;2.20;;;2.00;;
69325;SDS011;56471;53.508;49.252;2023-07-30T04:40:15;2.88;;;2.00;;
69325;SDS011;56471;53.508;49.252;2023-07-30T04:42:40;2.05;;;1.85;;
69325;SDS011;56471;53.508;49.252;2023-07-30T04:45:06;2.25;;;2.10;;
69325;SDS011;56471;53.508;49.252;2023-07-30T04:47:32;2.47;;;2.05;;
69325;SDS011;56471;53.508;49.252;2023-07-30T04:49:58;2.33;;;2.00;;
69325;SDS011;56471;53.508;49.252;2023-07-30T04:52:23;2.03;;;1.92;;
69325;SDS011;56471;53.508;49.252;2023-07-30T04:54:49;2.20;;;2.00;;
69325;SDS011;56471;53.508;49.252;2023-07-30T04:57:14;3.85;;;2.25;;
69325;SDS011;56471;53.508;49.252;2023-07-30T04:59:40;2.65;;;2.10;;
69325;SDS011;56471;53.508;49.252;2023-07-30T05:02:06;2.38;;;2.10;;
69325;SDS011;56471;53.508;49.252;2023-07-30T05:04:32;2.88;;;2.15;;
69325;SDS011;56471;53.508;49.252;2023-07-30T05:06:58;2.83;;;2.13;;
69325;SDS011;56471;53.508;49.252;2023-07-30T05:09:23;2.88;;;2.40;;
69325;SDS011;56471;53.508;49.252;2023-07-30T05:11:49;2.45;;;1.95;;
69325;SDS011;56471;53.508;49.252;2023-07-30T05:14:14;2.53;;;2.00;;
69325;SDS011;56471;53.508;49.252;2023-07-30T05:16:40;3.10;;;2.00;;
69325;SDS011;56471;53.508;49.252;2023-07-30T05:19:06;2.33;;;2.13;;
69325;SDS011;56471;53.508;49.252;2023-07-30T05:21:31;2.30;;;2.10;;
69325;SDS011;56471;53.508;49.252;2023-07-30T05:23:57;3.45;;;2.20;;
69325;SDS011;56471;53.508;49.252;2023-07-30T05:26:23;2.38;;;2.17;;
69325;SDS011;56471;53.508;49.252;2023-07-30T05:28:48;2.47;;;2.10;;
69325;SDS011;56471;53.508;49.252;2023-07-30T05:31:14;2.38;;;2.15;;
69325;SDS011;56471;53.508;49.252;2023-07-30T05:33:39;2.40;;;2.20;;
69325;SDS011;56471;53.508;49.252;2023-07-30T05:36:05;2.67;;;2.17;;
69325;SDS011;56471;53.508;49.252;2023-07-30T05:38:31;2.50;;;2.30;;
69325;SDS011;56471;53.508;49.252;2023-07-30T05:40:57;2.75;;;2.13;;
69325;SDS011;56471;53.508;49.252;2023-07-30T05:43:22;2.58;;;2.17;;
69325;SDS011;56471;53.508;49.252;2023-07-30T05:45:48;2.75;;;2.40;;
69325;SDS011;56471;53.508;49.252;2023-07-30T05:48:14;2.50;;;2.30;;
69325;SDS011;56471;53.508;49.252;2023-07-30T05:50:39;2.75;;;2.40;;
69325;SDS011;56471;53.508;49.252;2023-07-30T05:53:05;2.97;;;2.50;;
69325;SDS011;56471;53.508;49.252;2023-07-30T05:55:31;3.65;;;2.45;;
69325;SDS011;56471;53.508;49.252;2023-07-30T05:57:56;2.42;;;2.22;;
69325;SDS011;56471;53.508;49.252;2023-07-30T06:00:23;2.53;;;2.30;;
69325;SDS011;56471;53.508;49.252;2023-07-30T06:02:49;2.70;;;2.45;;
69325;SDS011;56471;53.508;49.252;2023-07-30T06:05:15;3.60;;;2.35;;
69325;SDS011;56471;53.508;49.252;2023-07-30T06:07:40;2.40;;;2.05;;
69325;SDS011;56471;53.508;49.252;2023-07-30T06:10:06;2.53;;;2.30;;
69325;SDS011;56471;53.508;49.252;2023-07-30T06:12:32;2.60;;;2.40;;
69325;SDS011;56471;53.508;49.252;2023-07-30T06:14:58;3.60;;;2.60;;
69325;SDS011;56471;53.508;49.252;2023-07-30T06:17:23;3.22;;;2.60;;
69325;SDS011;56471;53.508;49.252;2023-07-30T06:19:49;2.70;;;2.50;;
69325;SDS011;56471;53.508;49.252;2023-07-30T06:22:15;2.90;;;2.55;;
69325;SDS011;56471;53.508;49.252;2023-07-30T06:24:40;2.78;;;2.58;;
69325;SDS011;56471;53.508;49.252;2023-07-30T06:27:06;2.67;;;2.47;;
69325;SDS011;56471;53.508;49.252;2023-07-30T06:29:32;3.22;;;2.80;;
69325;SDS011;56471;53.508;49.252;2023-07-30T06:31:57;2.65;;;2.40;;
69325;SDS011;56471;53.508;49.252;2023-07-30T06:34:23;4.25;;;2.70;;
69325;SDS011;56471;53.508;49.252;2023-07-30T06:36:48;3.40;;;2.80;;
69325;SDS011;56471;53.508;49.252;2023-07-30T06:39:14;3.08;;;2.78;;
69325;SDS011;56471;53.508;49.252;2023-07-30T06:41:40;4.05;;;2.63;;
69325;SDS011;56471;53.508;49.252;2023-07-30T06:44:05;3.10;;;2.80;;
69325;SDS011;56471;53.508;49.252;2023-07-30T06:46:31;2.92;;;2.67;;
69325;SDS011;56471;53.508;49.252;2023-07-30T06:48:56;3.05;;;2.75;;
69325;SDS011;56471;53.508;49.252;2023-07-30T06:51:24;3.33;;;2.60;;
69325;SDS011;56471;53.508;49.252;2023-07-30T06:53:50;4.32;;;2.90;;
69325;SDS011;56471;53.508;49.252;2023-07-30T06:56:16;3.67;;;2.83;;
69325;SDS011;56471;53.508;49.252;2023-07-30T06:58:41;3.47;;;3.17;;
69325;SDS011;56471;53.508;49.252;2023-07-30T07:01:07;3.30;;;3.00;;
69325;SDS011;56471;53.508;49.252;2023-07-30T07:03:32;3.15;;;2.85;;
69325;SDS011;56471;53.508;49.252;2023-07-30T07:05:58;3.17;;;2.63;;
69325;SDS011;56471;53.508;49.252;2023-07-30T07:08:24;2.90;;;2.70;;
69325;SDS011;56471;53.508;49.252;2023-07-30T07:10:50;3.83;;;2.80;;
69325;SDS011;56471;53.508;49.252;2023-07-30T07:13:16;3.03;;;2.72;;
69325;SDS011;56471;53.508;49.252;2023-07-30T07:15:42;3.35;;;3.05;;
69325;SDS011;56471;53.508;49.252;2023-07-30T07:18:08;3.28;;;2.97;;
69325;SDS011;56471;53.508;49.252;2023-07-30T07:20:34;3.17;;;2.70;;
69325;SDS011;56471;53.508;49.252;2023-07-30T07:23:02;3.70;;;2.80;;
69325;SDS011;56471;53.508;49.252;2023-07-30T07:25:28;2.88;;;2.67;;
69325;SDS011;56471;53.508;49.252;2023-07-30T07:27:54;3.15;;;2.85;;
69325;SDS011;56471;53.508;49.252;2023-07-30T07:30:28;3.00;;;2.70;;
69325;SDS011;56471;53.508;49.252;2023-07-30T07:32:54;2.85;;;2.65;;
69325;SDS011;56471;53.508;49.252;2023-07-30T07:35:20;2.80;;;2.60;;
69325;SDS011;56471;53.508;49.252;2023-07-30T07:37:47;2.85;;;2.45;;
69325;SDS011;56471;53.508;49.252;2023-07-30T07:40:12;2.67;;;2.47;;
69325;SDS011;56471;53.508;49.252;2023-07-30T07:42:38;4.63;;;2.72;;
69325;SDS011;56471;53.508;49.252;2023-07-30T07:45:05;2.83;;;2.60;;
69325;SDS011;56471;53.508;49.252;2023-07-30T07:47:31;2.90;;;2.60;;
69325;SDS011;56471;53.508;49.252;2023-07-30T07:49:57;2.70;;;2.50;;
69325;SDS011;56471;53.508;49.252;2023-07-30T07:52:23;3.42;;;2.63;;
69325;SDS011;56471;53.508;49.252;2023-07-30T07:54:48;2.70;;;2.50;;
69325;SDS011;56471;53.508;49.252;2023-07-30T07:57:14;3.53;;;2.80;;
69325;SDS011;56471;53.508;49.252;2023-07-30T07:59:40;2.80;;;2.60;;
69325;SDS011;56471;53.508;49.252;2023-07-30T08:02:06;2.90;;;2.70;;
69325;SDS011;56471;53.508;49.252;2023-07-30T08:04:32;2.90;;;2.60;;
69325;SDS011;56471;53.508;49.252;2023-07-30T08:06:58;3.95;;;2.80;;
69325;SDS011;56471;53.508;49.252;2023-07-30T08:09:28;3.15;;;2.85;;
69325;SDS011;56471;53.508;49.252;2023-07-30T08:11:54;3.33;;;2.58;;
69325;SDS011;56471;53.508;49.252;2023-07-30T08:14:20;3.08;;;2.75;;
69325;SDS011;56471;53.508;49.252;2023-07-30T08:16:46;2.90;;;2.70;;
69325;SDS011;56471;53.508;49.252;2023-07-30T08:19:11;3.08;;;2.88;;
69325;SDS011;56471;53.508;49.252;2023-07-30T08:21:37;3.00;;;2.80;;
69325;SDS011;56471;53.508;49.252;2023-07-30T08:24:03;3.00;;;2.60;;
69325;SDS011;56471;53.508;49.252;2023-07-30T08:26:29;3.10;;;2.80;;
69325;SDS011;56471;53.508;49.252;2023-07-30T08:28:55;3.22;;;2.75;;
69325;SDS011;56471;53.508;49.252;2023-07-30T08:31:22;3.00;;;2.70;;
69325;SDS011;56471;53.508;49.252;2023-07-30T08:33:48;3.10;;;2.80;;
69325;SDS011;56471;53.508;49.252;2023-07-30T08:36:13;3.33;;;2.88;;
69325;SDS011;56471;53.508;49.252;2023-07-30T08:38:39;3.05;;;2.78;;
69325;SDS011;56471;53.508;49.252;2023-07-30T08:41:05;3.00;;;2.70;;
69325;SDS011;56471;53.508;49.252;2023-07-30T08:43:33;3.28;;;2.97;;
69325;SDS011;56471;53.508;49.252;2023-07-30T08:45:59;2.90;;;2.70;;
69325;SDS011;56471;53.508;49.252;2023-07-30T08:48:26;3.20;;;2.90;;
69325;SDS011;56471;53.508;49.252;2023-07-30T08:50:51;3.03;;;2.72;;
69325;SDS011;56471;53.508;49.252;2023-07-30T08:53:19;3.10;;;2.80;;
69325;SDS011;56471;53.508;49.252;2023-07-30T08:55:45;3.13;;;2.83;;
69325;SDS011;56471;53.508;49.252;2023-07-30T08:58:11;3.30;;;3.00;;
69325;SDS011;56471;53.508;49.252;2023-07-30T09:00:38;3.13;;;2.83;;
69325;SDS011;56471;53.508;49.252;2023-07-30T09:03:07;3.05;;;2.85;;
69325;SDS011;56471;53.508;49.252;2023-07-30T09:05:34;2.83;;;2.58;;
69325;SDS011;56471;53.508;49.252;2023-07-30T09:08:00;2.70;;;2.50;;
69325;SDS011;56471;53.508;49.252;2023-07-30T09:10:25;3.30;;;3.00;;
69325;SDS011;56471;53.508;49.252;2023-07-30T09:12:57;3.25;;;2.75;;
69325;SDS011;56471;53.508;49.252;2023-07-30T09:15:34;3.75;;;3.00;;
69325;SDS011;56471;53.508;49.252;2023-07-30T09:18:02;4.28;;;3.20;;
69325;SDS011;56471;53.508;49.252;2023-07-30T09:20:37;3.20;;;2.90;;
69325;SDS011;56471;53.508;49.252;2023-07-30T09:23:12;3.53;;;3.20;;
69325;SDS011;56471;53.508;49.252;2023-07-30T09:25:39;2.95;;;2.65;;
69325;SDS011;56471;53.508;49.252;2023-07-30T09:28:05;3.70;;;2.80;;
69325;SDS011;56471;53.508;49.252;2023-07-30T09:30:31;3.25;;;2.80;;
69325;SDS011;56471;53.508;49.252;2023-07-30T09:32:58;2.88;;;2.55;;
69325;SDS011;56471;53.508;49.252;2023-07-30T09:35:24;3.53;;;2.72;;
69325;SDS011;56471;53.508;49.252;2023-07-30T09:37:57;4.25;;;2.95;;
69325;SDS011;56471;53.508;49.252;2023-07-30T09:40:37;3.25;;;2.95;;
69325;SDS011;56471;53.508;49.252;2023-07-30T09:43:04;3.42;;;2.70;;
69325;SDS011;56471;53.508;49.252;2023-07-30T09:45:35;2.92;;;2.72;;
69325;SDS011;56471;53.508;49.252;2023-07-30T09:48:02;3.00;;;2.78;;
69325;SDS011;56471;53.508;49.252;2023-07-30T09:50:30;3.25;;;2.95;;
69325;SDS011;56471;53.508;49.252;2023-07-30T09:52:55;4.00;;;2.90;;
69325;SDS011;56471;53.508;49.252;2023-07-30T09:55:23;3.00;;;2.72;;
69325;SDS011;56471;53.508;49.252;2023-07-30T09:57:49;3.00;;;2.80;;
69325;SDS011;56471;53.508;49.252;2023-07-30T10:00:14;3.08;;;2.78;;
69325;SDS011;56471;53.508;49.252;2023-07-30T10:02:41;3.70;;;3.00;;
69325;SDS011;56471;53.508;49.252;2023-07-30T10:05:16;3.00;;;2.70;;
69325;SDS011;56471;53.508;49.252;2023-07-30T10:07:49;3.47;;;2.90;;
69325;SDS011;56471;53.508;49.252;2023-07-30T10:10:21;2.85;;;2.65;;
69325;SDS011;56471;53.508;49.252;2023-07-30T10:12:49;2.92;;;2.63;;
69325;SDS011;56471;53.508;49.252;2023-07-30T10:15:18;3.20;;;2.90;;
69325;SDS011;56471;53.508;49.252;2023-07-30T10:17:48;2.80;;;2.60;;
69325;SDS011;56471;53.508;49.252;2023-07-30T10:20:19;3.17;;;2.88;;
69325;SDS011;56471;53.508;49.252;2023-07-30T10:22:54;3.38;;;2.92;;
69325;SDS011;56471;53.508;49.252;2023-07-30T10:25:22;719.67;;;609.67;;
69325;SDS011;56471;53.508;49.252;2023-07-30T10:27:55;763.65;;;629.63;;
69325;SDS011;56471;53.508;49.252;2023-07-30T10:30:27;723.17;;;601.30;;
69325;SDS011;56471;53.508;49.252;2023-07-30T10:38:11;576.63;;;478.40;;
69325;SDS011;56471;53.508;49.252;2023-07-30T10:41:05;512.47;;;407.40;;
69325;SDS011;56471;53.508;49.252;2023-07-30T10:43:32;343.33;;;251.30;;
69325;SDS011;56471;53.508;49.252;2023-07-30T10:46:00;284.77;;;206.95;;
69325;SDS011;56471;53.508;49.252;2023-07-30T10:48:29;225.43;;;148.73;;
69325;SDS011;56471;53.508;49.252;2023-07-30T10:51:00;179.20;;;121.45;;
69325;SDS011;56471;53.508;49.252;2023-07-30T10:53:27;155.88;;;102.68;;
69325;SDS011;56471;53.508;49.252;2023-07-30T10:55:53;143.60;;;94.20;;
69325;SDS011;56471;53.508;49.252;2023-07-30T10:58:20;119.72;;;79.43;;
69325;SDS011;56471;53.508;49.252;2023-07-30T11:00:48;115.07;;;73.55;;
69325;SDS011;56471;53.508;49.252;2023-07-30T11:03:14;104.88;;;67.50;;
69325;SDS011;56471;53.508;49.252;2023-07-30T11:05:40;96.25;;;60.25;;
69325;SDS011;56471;53.508;49.252;2023-07-30T11:08:05;82.75;;;49.83;;
69325;SDS011;56471;53.508;49.252;2023-07-30T11:10:31;75.35;;;44.85;;
69325;SDS011;56471;53.508;49.252;2023-07-30T11:12:57;64.32;;;39.08;;
69325;SDS011;56471;53.508;49.252;2023-07-30T11:15:24;55.80;;;34.33;;
69325;SDS011;56471;53.508;49.252;2023-07-30T11:17:51;58.40;;;35.05;;
69325;SDS011;56471;53.508;49.252;2023-07-30T11:20:26;53.17;;;32.05;;
69325;SDS011;56471;53.508;49.252;2023-07-30T11:22:53;46.92;;;28.25;;
69325;SDS011;56471;53.508;49.252;2023-07-30T11:25:19;36.75;;;23.20;;
69325;SDS011;56471;53.508;49.252;2023-07-30T11:27:45;37.10;;;22.17;;
69325;SDS011;56471;53.508;49.252;2023-07-30T11:30:15;29.63;;;17.98;;
69325;SDS011;56471;53.508;49.252;2023-07-30T11:32:41;25.83;;;16.88;;
69325;SDS011;56471;53.508;49.252;2023-07-30T11:35:09;22.25;;;14.70;;
69325;SDS011;56471;53.508;49.252;2023-07-30T11:37:40;18.95;;;12.13;;
69325;SDS011;56471;53.508;49.252;2023-07-30T11:40:10;17.52;;;11.90;;
69325;SDS011;56471;53.508;49.252;2023-07-30T11:42:36;12.38;;;8.90;;
69325;SDS011;56471;53.508;49.252;2023-07-30T11:45:18;12.25;;;8.00;;
69325;SDS011;56471;53.508;49.252;2023-07-30T11:50:10;618.45;;;492.45;;
69325;SDS011;56471;53.508;49.252;2023-07-30T11:52:36;316.92;;;263.08;;
69325;SDS011;56471;53.508;49.252;2023-07-30T11:55:04;308.92;;;246.70;;
69325;SDS011;56471;53.508;49.252;2023-07-30T11:57:34;277.95;;;218.38;;
69325;SDS011;56471;53.508;49.252;2023-07-30T12:00:00;217.15;;;157.30;;
69325;SDS011;56471;53.508;49.252;2023-07-30T12:02:26;185.57;;;134.23;;
69325;SDS011;56471;53.508;49.252;2023-07-30T12:04:51;152.18;;;110.53;;
69325;SDS011;56471;53.508;49.252;2023-07-30T12:07:23;129.75;;;93.43;;
69325;SDS011;56471;53.508;49.252;2023-07-30T12:09:50;131.52;;;93.85;;
69325;SDS011;56471;53.508;49.252;2023-07-30T12:12:16;108.78;;;77.63;;
69325;SDS011;56471;53.508;49.252;2023-07-30T12:14:52;95.10;;;64.05;;
69325;SDS011;56471;53.508;49.252;2023-07-30T12:17:19;79.88;;;52.47;;
69325;SDS011;56471;53.508;49.252;2023-07-30T12:19:45;64.28;;;40.83;;
69325;SDS011;56471;53.508;49.252;2023-07-30T12:22:10;48.60;;;32.78;;
69325;SDS011;56471;53.508;49.252;2023-07-30T12:24:36;44.28;;;28.77;;
69325;SDS011;56471;53.508;49.252;2023-07-30T12:27:02;35.15;;;23.10;;
69325;SDS011;56471;53.508;49.252;2023-07-30T12:29:28;23.80;;;16.77;;
69325;SDS011;56471;53.508;49.252;2023-07-30T12:31:53;17.95;;;11.77;;
69325;SDS011;56471;53.508;49.252;2023-07-30T12:34:21;11.82;;;8.35;;
69325;SDS011;56471;53.508;49.252;2023-07-30T12:36:48;12.25;;;9.50;;
69325;SDS011;56471;53.508;49.252;2023-07-30T12:39:13;10.85;;;7.95;;
69325;SDS011;56471;53.508;49.252;2023-07-30T12:41:39;10.02;;;7.88;;
69325;SDS011;56471;53.508;49.252;2023-07-30T12:44:05;9.25;;;7.47;;
69325;SDS011;56471;53.508;49.252;2023-07-30T12:46:31;9.77;;;7.53;;
69325;SDS011;56471;53.508;49.252;2023-07-30T12:48:58;7.43;;;6.10;;
69325;SDS011;56471;53.508;49.252;2023-07-30T12:51:29;8.10;;;5.32;;
69325;SDS011;56471;53.508;49.252;2023-07-30T12:53:55;9.25;;;4.75;;
69325;SDS011;56471;53.508;49.252;2023-07-30T12:56:21;4.43;;;4.03;;
69325;SDS011;56471;53.508;49.252;2023-07-30T12:58:46;4.30;;;3.90;;
69325;SDS011;56471;53.508;49.252;2023-07-30T13:01:12;3.78;;;3.10;;
69325;SDS011;56471;53.508;49.252;2023-07-30T13:03:38;4.00;;;2.70;;
69325;SDS011;56471;53.508;49.252;2023-07-30T13:06:04;3.15;;;2.67;;
69325;SDS011;56471;53.508;49.252;2023-07-30T13:08:30;4.38;;;2.53;;
69325;SDS011;56471;53.508;49.252;2023-07-30T13:10:55;4.18;;;2.78;;
69325;SDS011;56471;53.508;49.252;2023-07-30T13:13:21;3.00;;;2.80;;
69325;SDS011;56471;53.508;49.252;2023-07-30T13:15:48;2.95;;;2.60;;
69325;SDS011;56471;53.508;49.252;2023-07-30T13:18:13;3.08;;;2.50;;
69325;SDS011;56471;53.508;49.252;2023-07-30T13:20:39;2.70;;;2.50;;
69325;SDS011;56471;53.508;49.252;2023-07-30T13:23:05;2.60;;;2.40;;
69325;SDS011;56471;53.508;49.252;2023-07-30T13:25:30;3.10;;;2.20;;
69325;SDS011;56471;53.508;49.252;2023-07-30T13:27:56;2.80;;;2.60;;
69325;SDS011;56471;53.508;49.252;2023-07-30T13:30:22;451.77;;;367.90;;
69325;SDS011;56471;53.508;49.252;2023-07-30T13:32:47;19.75;;;14.05;;
69325;SDS011;56471;53.508;49.252;2023-07-30T13:35:13;4.03;;;3.00;;
69325;SDS011;56471;53.508;49.252;2023-07-30T13:37:39;2.67;;;2.47;;
69325;SDS011;56471;53.508;49.252;2023-07-30T13:40:04;2.70;;;2.50;;
69325;SDS011;56471;53.508;49.252;2023-07-30T13:42:31;2.45;;;2.10;;
69325;SDS011;56471;53.508;49.252;2023-07-30T13:44:56;6.28;;;1.90;;
69325;SDS011;56471;53.508;49.252;2023-07-30T13:47:22;2.72;;;1.83;;
69325;SDS011;56471;53.508;49.252;2023-07-30T13:49:48;3.58;;;1.90;;
69325;SDS011;56471;53.508;49.252;2023-07-30T13:52:14;2.22;;;1.70;;
69325;SDS011;56471;53.508;49.252;2023-07-30T13:54:40;2.30;;;1.80;;
69325;SDS011;56471;53.508;49.252;2023-07-30T13:57:07;2.63;;;2.10;;
69325;SDS011;56471;53.508;49.252;2023-07-30T13:59:32;4.90;;;2.60;;
69325;SDS011;56471;53.508;49.252;2023-07-30T14:01:58;2.28;;;2.15;;
69325;SDS011;56471;53.508;49.252;2023-07-30T14:04:24;2.17;;;1.98;;
69325;SDS011;56471;53.508;49.252;2023-07-30T14:06:50;4.28;;;1.92;;
69325;SDS011;56471;53.508;49.252;2023-07-30T14:09:16;2.00;;;1.80;;
69325;SDS011;56471;53.508;49.252;2023-07-30T14:11:41;2.03;;;1.90;;
69325;SDS011;56471;53.508;49.252;2023-07-30T14:14:10;3.17;;;1.90;;
69325;SDS011;56471;53.508;49.252;2023-07-30T14:16:36;1.90;;;1.80;;
69325;SDS011;56471;53.508;49.252;2023-07-30T14:19:02;2.35;;;1.90;;
69325;SDS011;56471;53.508;49.252;2023-07-30T14:21:28;2.33;;;2.13;;
69325;SDS011;56471;53.508;49.252;2023-07-30T14:23:53;5.68;;;2.08;;
69325;SDS011;56471;53.508;49.252;2023-07-30T14:26:22;2.67;;;2.00;;
69325;SDS011;56471;53.508;49.252;2023-07-30T14:28:47;2.35;;;2.10;;
69325;SDS011;56471;53.508;49.252;2023-07-30T14:31:13;3.55;;;2.00;;